Time;durP1;ratioP1;P1;durP2;ratioP2;P2;SDS_P1;SDS_P2;PMS_P1;PMS_P2;Temp;Humidity;BMP_temperature;BMP_pressure;BME280_temperature;BME280_humidity;BME280_pressure;Samples;Min_cycle;Max_cycle;Signal;HPM_P1;HPM_P2
2022/04/20 00:01:08;;;;;;;7.43;2.70;;;;;;;7.09;83.11;96389.97;5022373;28;20048;-69
2022/04/20 00:03:34;;;;;;;4.10;2.42;;;;;;;7.19;76.54;96387.56;5024454;28;20085;-71
2022/04/20 00:05:59;;;;;;;4.70;2.30;;;;;;;6.99;81.84;96388.66;5022859;28;20144;-71
2022/04/20 00:08:25;;;;;;;4.13;2.35;;;;;;;7.01;81.99;96384.97;5024743;28;20028;-70
2022/04/20 00:10:50;;;;;;;5.65;2.67;;;;;;;6.84;85.49;96387.44;5024581;28;20130;-69
2022/04/20 00:13:16;;;;;;;7.20;2.13;;;;;;;6.79;85.36;96382.81;5022848;28;20041;-71
2022/04/20 00:15:41;;;;;;;5.20;2.55;;;;;;;6.45;86.14;96380.81;5022830;28;20044;-71
2022/04/20 00:18:07;;;;;;;5.68;2.70;;;;;;;6.45;85.39;96381.63;5024047;28;20064;-71
2022/04/20 00:20:32;;;;;;;5.20;2.58;;;;;;;6.43;87.12;96383.69;5022910;28;20127;-69
2022/04/20 00:22:58;;;;;;;4.60;2.33;;;;;;;6.50;86.16;96386.28;5023562;28;20072;-69
2022/04/20 00:25:23;;;;;;;5.25;2.70;;;;;;;6.55;87.92;96375.78;5024104;28;20048;-70
2022/04/20 00:27:49;;;;;;;8.20;2.50;;;;;;;6.76;84.12;96383.25;5023224;28;20041;-68
2022/04/20 00:30:15;;;;;;;5.90;2.63;;;;;;;6.67;84.58;96385.41;5028516;28;20049;-71
2022/04/20 00:32:40;;;;;;;7.50;2.50;;;;;;;6.72;85.31;96376.78;5021335;28;20608;-69
2022/04/20 00:35:08;;;;;;;5.03;2.70;;;;;;;6.70;82.78;96378.88;5023206;28;20818;-70
2022/04/20 00:37:34;;;;;;;22.40;2.50;;;;;;;6.54;87.69;96380.31;5024380;28;20111;-69
2022/04/20 00:40:01;;;;;;;6.63;2.97;;;;;;;6.56;84.94;96374.75;5020904;28;20049;-71
2022/04/20 00:42:27;;;;;;;6.32;2.33;;;;;;;6.54;84.83;96376.84;5024363;28;20041;-72
2022/04/20 00:44:54;;;;;;;5.07;2.28;;;;;;;6.37;85.43;96379.28;5024971;28;20073;-69
2022/04/20 00:47:20;;;;;;;6.40;2.47;;;;;;;6.45;86.58;96378.16;5023322;28;20037;-70
2022/04/20 00:49:47;;;;;;;5.82;2.75;;;;;;;6.22;89.39;96379.66;5023725;28;21024;-71
2022/04/20 00:52:13;;;;;;;5.50;2.53;;;;;;;6.13;86.65;96378.34;5030051;28;20045;-69
2022/04/20 00:54:39;;;;;;;6.03;2.70;;;;;;;6.26;86.61;96388.81;5024826;28;20050;-69
2022/04/20 00:57:06;;;;;;;4.20;2.28;;;;;;;5.88;91.17;96389.81;5029136;28;20325;-69
2022/04/20 00:59:35;;;;;;;3.97;2.20;;;;;;;5.75;94.60;96397.91;5023280;28;20037;-69
2022/04/20 01:02:02;;;;;;;4.18;2.40;;;;;;;5.59;93.67;96390.50;5054063;28;20045;-69
2022/04/20 01:04:30;;;;;;;6.75;2.63;;;;;;;5.58;93.99;96391.53;5028678;28;20056;-71
2022/04/20 01:07:11;;;;;;;3.70;2.22;;;;;;;5.83;90.71;96397.63;5037440;28;20126;-69
2022/04/20 01:09:49;;;;;;;6.80;2.30;;;;;;;6.01;89.46;96386.25;5024736;28;20037;-70
2022/04/20 01:12:43;;;;;;;;;;;;;;;6.04;93.93;96390.28;5017983;28;20055;-70
2022/04/20 01:15:41;;;;;;;4.57;2.17;;;;;;;5.73;94.68;96392.00;5017839;28;20436;-69
2022/04/20 01:18:16;;;;;;;6.95;2.78;;;;;;;5.90;92.64;96391.44;5032576;28;20215;-72
2022/04/20 01:21:08;;;;;;;10.18;2.30;;;;;;;5.80;93.09;96389.28;4994552;28;20045;-71
2022/04/20 01:23:42;;;;;;;5.45;2.33;;;;;;;5.86;90.78;96381.25;5027937;28;20018;-69
2022/04/20 01:26:14;;;;;;;7.70;2.47;;;;;;;5.77;91.88;96379.94;5028882;28;20227;-69
2022/04/20 01:29:04;;;;;;;6.50;2.30;;;;;;;5.54;97.49;96385.06;5024257;28;20478;-70
2022/04/20 01:31:49;;;;;;;5.10;2.40;;;;;;;5.50;97.13;96389.16;5026822;28;20421;-69
2022/04/20 01:34:33;;;;;;;6.45;2.40;;;;;;;5.40;97.92;96387.00;5029174;28;20025;-72
2022/04/20 01:36:58;;;;;;;4.60;2.30;;;;;;;5.30;97.85;96390.16;5023789;28;20092;-69
2022/04/20 01:39:24;;;;;;;5.95;2.25;;;;;;;5.27;97.66;96381.81;5026040;28;20487;-70
2022/04/20 01:41:50;;;;;;;4.18;2.40;;;;;;;5.30;98.68;96389.34;5042727;28;20458;-69
2022/04/20 01:44:16;;;;;;;3.90;2.53;;;;;;;5.43;93.97;96372.47;5028149;28;20029;-70
2022/04/20 01:47:02;;;;;;;5.03;1.80;;;;;;;5.51;94.47;96380.97;5030154;28;20041;-70
2022/04/20 01:49:33;;;;;;;;;;;;;;;5.22;100.00;96374.50;5029323;28;20076;-69
2022/04/20 01:52:24;;;;;;;5.70;2.30;;;;;;;5.35;95.01;96380.72;5022306;28;19920;-70
2022/04/20 01:55:04;;;;;;;7.47;2.50;;;;;;;5.29;95.62;96382.41;5031856;28;20480;-71
2022/04/20 01:57:48;;;;;;;4.95;2.55;;;;;;;5.41;95.69;96383.31;5028645;28;20063;-70
2022/04/20 02:00:29;;;;;;;6.20;2.35;;;;;;;5.45;93.98;96378.41;5059083;28;20041;-70
2022/04/20 02:03:15;;;;;;;4.85;2.28;;;;;;;5.40;96.14;96375.59;5025339;28;20029;-71
2022/04/20 02:06:00;;;;;;;6.47;2.78;;;;;;;5.44;93.37;96374.09;5024283;28;20067;-69
2022/04/20 02:08:43;;;;;;;5.47;2.78;;;;;;;5.36;94.39;96374.38;5033754;28;20116;-70
2022/04/20 02:11:14;;;;;;;6.15;2.35;;;;;;;5.43;96.09;96375.13;5059759;28;20045;-70
2022/04/20 02:13:40;;;;;;;5.95;2.80;;;;;;;5.38;93.21;96378.47;5028803;28;20048;-71
2022/04/20 02:16:06;;;;;;;6.00;2.60;;;;;;;5.44;94.44;96385.53;5014873;28;20033;-70
2022/04/20 02:18:34;;;;;;;4.38;2.42;;;;;;;5.44;96.33;96390.84;5027894;28;20056;-71
2022/04/20 02:21:26;;;;;;;10.05;2.80;;;;;;;5.34;95.56;96385.22;5031285;28;20028;-72
2022/04/20 02:23:52;;;;;;;6.22;2.53;;;;;;;5.37;94.18;96389.28;5028532;28;20037;-70
2022/04/20 02:26:19;;;;;;;4.63;2.40;;;;;;;5.37;93.87;96383.97;5026023;28;20049;-71
2022/04/20 02:28:45;;;;;;;4.78;2.65;;;;;;;5.43;94.43;96385.75;5057631;28;20033;-70
2022/04/20 02:31:10;;;;;;;5.53;2.67;;;;;;;5.31;94.58;96386.47;5024642;28;20064;-70
2022/04/20 02:33:36;;;;;;;5.50;2.63;;;;;;;5.35;93.99;96391.34;5025109;28;20049;-71
2022/04/20 02:36:01;;;;;;;5.13;2.45;;;;;;;5.24;96.78;96391.03;5024152;28;20100;-69
2022/04/20 02:38:29;;;;;;;5.88;2.55;;;;;;;5.20;96.30;96392.47;5026642;28;20061;-72
2022/04/20 02:40:57;;;;;;;4.50;2.53;;;;;;;5.17;97.07;96390.25;5025003;28;20033;-70
2022/04/20 02:43:23;;;;;;;10.18;2.50;;;;;;;5.18;95.20;96393.72;5028050;28;20083;-70
2022/04/20 02:45:49;;;;;;;7.20;2.63;;;;;;;5.25;95.69;96391.81;5023915;28;20369;-71
2022/04/20 02:48:16;;;;;;;5.40;2.70;;;;;;;5.27;96.03;96395.06;5056830;28;20041;-71
2022/04/20 02:50:43;;;;;;;5.55;2.30;;;;;;;5.21;95.73;96394.13;5022369;28;20372;-70
2022/04/20 02:53:09;;;;;;;6.32;2.60;;;;;;;5.12;98.43;96400.69;5055867;28;20445;-69
2022/04/20 02:55:38;;;;;;;6.00;3.45;;;;;;;5.10;98.30;96399.28;5028396;28;20107;-69
2022/04/20 02:58:04;;;;;;;6.43;2.72;;;;;;;4.97;95.78;96402.84;5028444;28;20069;-69
2022/04/20 03:00:30;;;;;;;6.13;3.00;;;;;;;4.90;97.46;96400.25;5024625;28;20796;-69
2022/04/20 03:03:09;;;;;;;7.97;2.67;;;;;;;4.89;96.73;96401.25;5034118;28;20056;-69
2022/04/20 03:05:35;;;;;;;7.97;2.30;;;;;;;4.88;97.33;96404.13;5038709;28;20091;-69
2022/04/20 03:08:00;;;;;;;5.80;2.40;;;;;;;4.85;98.82;96399.25;5026987;28;20430;-69
2022/04/20 03:10:27;;;;;;;3.75;2.25;;;;;;;4.78;100.00;96409.09;5056021;28;20048;-72
2022/04/20 03:12:53;;;;;;;6.30;3.10;;;;;;;4.66;98.25;96404.44;5029906;28;20029;-69
2022/04/20 03:15:18;;;;;;;4.85;2.45;;;;;;;4.62;98.43;96408.56;5025355;28;20048;-70
2022/04/20 03:17:44;;;;;;;4.50;2.30;;;;;;;4.46;100.00;96406.41;5059637;28;20037;-71
2022/04/20 03:20:11;;;;;;;7.38;3.08;;;;;;;4.46;100.00;96409.06;5024728;28;20404;-70
2022/04/20 03:22:37;;;;;;;4.63;2.40;;;;;;;4.30;100.00;96420.94;5022993;28;20036;-69
2022/04/20 03:25:04;;;;;;;4.65;2.53;;;;;;;3.98;100.00;96427.97;5037263;28;20087;-71
2022/04/20 03:27:49;;;;;;;4.03;2.53;;;;;;;3.97;100.00;96417.56;5025174;28;20484;-69
2022/04/20 03:30:16;;;;;;;6.97;2.92;;;;;;;3.85;100.00;96417.41;5040433;28;20096;-69
2022/04/20 03:32:42;;;;;;;7.97;2.40;;;;;;;3.99;100.00;96416.34;5031887;28;20523;-72
2022/04/20 03:35:08;;;;;;;6.68;3.08;;;;;;;4.12;100.00;96420.78;5023615;28;20052;-70
2022/04/20 03:37:33;;;;;;;6.88;2.65;;;;;;;4.11;100.00;96421.81;5029392;28;20248;-70
2022/04/20 03:39:59;;;;;;;5.03;2.50;;;;;;;4.10;100.00;96426.28;5022505;28;20041;-69
2022/04/20 03:42:26;;;;;;;5.00;2.58;;;;;;;4.12;100.00;96426.88;5023524;28;20025;-69
2022/04/20 03:44:56;;;;;;;5.13;2.35;;;;;;;4.07;100.00;96429.38;5030053;28;20052;-71
2022/04/20 03:47:21;;;;;;;6.68;2.65;;;;;;;4.15;100.00;96428.31;5029851;28;20060;-75
2022/04/20 03:49:47;;;;;;;6.35;2.53;;;;;;;3.89;100.00;96429.19;5031426;28;20033;-69
2022/04/20 03:52:13;;;;;;;5.10;2.42;;;;;;;3.88;100.00;96432.84;5029935;28;20049;-69
2022/04/20 03:54:39;;;;;;;6.95;2.75;;;;;;;3.84;100.00;96431.66;5022650;28;20041;-69
2022/04/20 03:57:10;;;;;;;3.85;2.00;;;;;;;3.92;100.00;96432.25;5039488;28;20041;-70
2022/04/20 03:59:43;;;;;;;5.45;2.30;;;;;;;3.97;100.00;96425.50;5024553;28;20072;-69
2022/04/20 04:02:10;;;;;;;7.88;2.95;;;;;;;4.03;100.00;96425.50;5023346;28;20380;-71
2022/04/20 04:04:42;;;;;;;10.32;3.83;;;;;;;3.78;100.00;96422.69;5023782;28;20037;-71
2022/04/20 04:07:19;;;;;;;7.05;2.90;;;;;;;3.86;100.00;96419.03;5029123;28;20477;-69
2022/04/20 04:09:46;;;;;;;6.05;2.53;;;;;;;3.86;100.00;96419.03;5054568;28;20418;-70
2022/04/20 04:12:13;;;;;;;4.72;2.13;;;;;;;3.87;100.00;96428.59;5022101;28;20036;-69
2022/04/20 04:14:47;;;;;;;6.65;2.40;;;;;;;3.88;100.00;96419.63;5031269;28;20431;-69
2022/04/20 04:17:13;;;;;;;7.22;2.97;;;;;;;3.72;100.00;96428.81;5027872;28;20276;-68
2022/04/20 04:19:40;;;;;;;7.97;2.92;;;;;;;3.87;100.00;96433.88;5025286;28;20106;-69
2022/04/20 04:22:07;;;;;;;4.13;2.25;;;;;;;3.86;100.00;96429.59;5025256;28;20033;-70
2022/04/20 04:24:36;;;;;;;4.93;2.45;;;;;;;3.76;100.00;96431.88;5023411;28;20029;-70
2022/04/20 04:27:09;;;;;;;5.18;2.65;;;;;;;3.81;100.00;96435.53;5053685;28;20046;-71
2022/04/20 04:29:38;;;;;;;4.93;2.60;;;;;;;3.78;100.00;96437.78;5028872;28;20532;-68
2022/04/20 04:32:05;;;;;;;5.93;2.70;;;;;;;3.80;100.00;96438.38;5030290;28;20056;-69
2022/04/20 04:34:31;;;;;;;4.63;2.15;;;;;;;3.78;100.00;96432.47;5031516;28;20112;-69
2022/04/20 04:36:58;;;;;;;4.97;2.03;;;;;;;3.89;100.00;96447.72;5022968;28;20049;-71
2022/04/20 04:39:28;;;;;;;6.20;2.60;;;;;;;3.94;100.00;96441.81;5047791;28;20055;-69
2022/04/20 04:41:56;;;;;;;7.60;2.60;;;;;;;3.91;100.00;96449.16;5037956;28;20395;-70
2022/04/20 04:44:22;;;;;;;8.65;2.80;;;;;;;3.92;100.00;96440.19;5022073;28;20597;-70
2022/04/20 04:49:46;;;;;;;4.72;2.60;;;;;;;3.53;100.00;96435.75;5033013;28;20041;-69
2022/04/20 04:52:11;;;;;;;3.65;2.30;;;;;;;3.41;100.00;96442.66;5018905;28;20052;-69
2022/04/20 04:54:40;;;;;;;5.45;2.40;;;;;;;3.36;100.00;96445.13;5031303;28;20173;-69
2022/04/20 04:57:10;;;;;;;7.55;2.72;;;;;;;3.42;100.00;96441.66;5027511;28;20436;-69
2022/04/20 04:59:37;;;;;;;7.95;2.65;;;;;;;3.49;100.00;96450.41;5025980;28;20372;-71
2022/04/20 05:02:04;;;;;;;5.03;2.58;;;;;;;3.51;100.00;96444.94;5032187;28;20387;-69
2022/04/20 05:04:30;;;;;;;5.80;3.13;;;;;;;3.52;100.00;96449.19;5029945;28;20484;-69
2022/04/20 05:07:01;;;;;;;3.43;2.03;;;;;;;3.63;100.00;96441.44;5031904;28;20563;-69
2022/04/20 05:09:47;;;;;;;5.80;2.30;;;;;;;3.52;100.00;96439.44;5025592;28;20069;-71
2022/04/20 05:12:13;;;;;;;5.32;2.45;;;;;;;3.72;100.00;96449.16;5030734;28;20578;-70
2022/04/20 05:14:41;;;;;;;5.47;2.28;;;;;;;3.83;100.00;96452.03;5028844;28;20408;-68
2022/04/20 05:17:06;;;;;;;6.95;2.70;;;;;;;3.94;100.00;96441.81;5023170;28;20040;-71
2022/04/20 05:19:34;;;;;;;4.10;2.30;;;;;;;3.92;100.00;96444.69;5032916;28;20420;-71
2022/04/20 05:22:05;;;;;;;6.35;2.30;;;;;;;4.05;100.00;96447.31;5031842;28;20358;-69
2022/04/20 05:24:36;;;;;;;9.15;2.85;;;;;;;4.10;100.00;96447.47;5024929;28;20041;-69
2022/04/20 05:27:04;;;;;;;7.60;2.50;;;;;;;4.06;100.00;96440.97;5028266;28;20044;-69
2022/04/20 05:29:39;;;;;;;6.57;2.65;;;;;;;4.09;100.00;96442.38;5031068;28;20029;-70
2022/04/20 05:32:07;;;;;;;3.63;2.03;;;;;;;4.22;100.00;96445.00;5023245;28;20045;-69
2022/04/20 05:34:35;;;;;;;4.88;2.08;;;;;;;4.38;100.00;96446.38;5032113;28;20036;-69
2022/04/20 05:42:33;;;;;;;8.18;2.38;;;;;;;4.70;98.90;96453.38;5022351;28;20041;-69
2022/04/20 05:44:59;;;;;;;6.18;2.30;;;;;;;4.85;98.98;96454.94;5057618;28;20227;-70
2022/04/20 05:47:24;;;;;;;4.40;2.33;;;;;;;4.95;99.73;96449.97;5028124;28;20375;-70
2022/04/20 05:49:50;;;;;;;5.25;2.60;;;;;;;5.06;98.47;96454.63;5030542;28;20431;-71
2022/04/20 05:52:17;;;;;;;6.60;2.42;;;;;;;5.13;97.06;96451.91;5026875;28;20045;-70
2022/04/20 05:54:43;;;;;;;5.30;2.10;;;;;;;5.16;97.01;96452.31;5026384;28;20041;-68
2022/04/20 05:57:10;;;;;;;5.47;2.28;;;;;;;5.29;97.45;96443.41;5020648;28;20088;-69
2022/04/20 05:59:37;;;;;;;5.82;2.30;;;;;;;5.42;96.64;96451.28;5057149;28;20132;-69
2022/04/20 06:02:03;;;;;;;10.38;2.25;;;;;;;5.51;94.25;96449.19;5031153;28;20311;-71
2022/04/20 06:04:30;;;;;;;5.32;2.38;;;;;;;5.67;94.54;96443.31;5024353;28;20144;-70
2022/04/20 06:07:01;;;;;;;5.53;2.30;;;;;;;5.78;94.41;96458.56;5026340;28;20409;-71
2022/04/20 06:09:32;;;;;;;4.80;1.90;;;;;;;5.91;93.25;96451.50;5056141;28;20033;-69
2022/04/20 06:12:12;;;;;;;4.57;2.38;;;;;;;5.96;90.49;96449.84;5023870;28;20038;-69
2022/04/20 06:15:06;;;;;;;4.20;1.98;;;;;;;6.09;91.96;96447.06;5024396;28;20490;-70
2022/04/20 06:17:51;;;;;;;4.75;2.10;;;;;;;6.14;90.04;96449.03;5023390;28;20166;-69
2022/04/20 06:20:17;;;;;;;6.80;2.15;;;;;;;6.25;89.33;96445.66;5027665;28;20505;-69
2022/04/20 06:23:01;;;;;;;6.18;2.42;;;;;;;6.41;90.27;96447.72;5026548;28;20291;-70
2022/04/20 06:25:58;;;;;;;5.70;2.15;;;;;;;6.49;81.17;96451.13;5030058;28;20472;-70
2022/04/20 06:28:42;;;;;;;5.18;2.22;;;;;;;6.66;81.46;96454.78;5025856;28;20072;-71
2022/04/20 06:31:35;;;;;;;5.35;2.08;;;;;;;6.82;82.97;96450.69;5015050;28;20578;-69
2022/04/20 06:34:16;;;;;;;7.38;1.80;;;;;;;6.92;84.14;96451.78;5026135;28;20039;-70
2022/04/20 06:37:05;;;;;;;4.18;2.08;;;;;;;6.99;77.68;96451.69;5024744;28;20338;-69
2022/04/20 06:39:51;;;;;;;8.77;2.00;;;;;;;7.13;76.35;96455.00;5018938;28;20053;-70
2022/04/20 06:42:33;;;;;;;4.40;2.08;;;;;;;7.17;74.39;96448.19;5031794;28;20033;-70
2022/04/20 06:45:22;;;;;;;3.20;1.67;;;;;;;7.23;72.99;96444.59;5032039;28;21500;-69
2022/04/20 06:47:59;;;;;;;3.63;1.65;;;;;;;7.33;75.64;96442.22;5029514;28;20999;-70
2022/04/20 06:50:43;;;;;;;5.40;2.10;;;;;;;7.28;70.36;96439.41;5023524;28;20057;-69
2022/04/20 06:59:13;;;;;;;3.30;1.80;;;;;;;7.64;67.49;96437.63;4941539;28;20058;-71
2022/04/20 07:02:02;;;;;;;6.20;1.83;;;;;;;7.67;69.26;96431.84;5014669;28;20307;-71
2022/04/20 07:04:47;;;;;;;5.97;1.58;;;;;;;7.77;64.59;96443.53;5023503;28;20235;-70
2022/04/20 07:07:29;;;;;;;4.22;1.80;;;;;;;7.87;63.08;96435.00;5027790;28;20037;-70
2022/04/20 07:10:06;;;;;;;7.15;1.75;;;;;;;7.95;62.34;96444.50;5024111;28;20049;-70
2022/04/20 07:12:50;;;;;;;4.95;1.27;;;;;;;7.98;61.64;96446.69;5034946;28;20047;-71
2022/04/20 07:15:16;;;;;;;4.43;1.65;;;;;;;8.02;62.75;96446.00;5025529;28;20041;-71
2022/04/20 07:17:42;;;;;;;3.30;1.58;;;;;;;8.07;60.80;96442.63;5040839;28;20611;-69
2022/04/20 07:20:28;;;;;;;4.43;2.00;;;;;;;8.18;62.03;96446.34;5023554;28;20053;-69
2022/04/20 07:23:13;;;;;;;8.98;1.58;;;;;;;8.22;63.64;96440.28;5056395;28;20029;-69
2022/04/20 07:25:48;;;;;;;3.63;1.70;;;;;;;8.30;63.42;96436.44;5026687;28;20120;-71
2022/04/20 07:28:27;;;;;;;5.65;2.10;;;;;;;8.37;62.33;96439.84;5024581;28;20045;-70
2022/04/20 07:31:04;;;;;;;4.60;1.75;;;;;;;8.46;64.33;96440.28;5030183;28;20045;-70
2022/04/20 07:33:50;;;;;;;4.38;1.77;;;;;;;8.47;58.54;96440.03;5026870;28;20751;-70
2022/04/20 07:36:41;;;;;;;;;;;;;;;8.58;61.58;96439.22;5023869;28;20049;-69
2022/04/20 07:39:24;;;;;;;6.93;2.03;;;;;;;8.64;57.91;96448.94;5055933;28;20358;-71
2022/04/20 07:42:28;;;;;;;4.95;1.92;;;;;;;8.64;57.13;96443.63;5005781;28;20438;-69
2022/04/20 07:45:11;;;;;;;3.60;1.77;;;;;;;8.68;58.21;96451.94;5004686;28;20052;-69
2022/04/20 07:47:57;;;;;;;3.42;1.50;;;;;;;8.71;56.28;96454.13;5018122;28;20057;-71
2022/04/20 07:50:52;;;;;;;5.43;1.70;;;;;;;8.70;57.21;96447.16;5001943;28;20068;-70
2022/04/20 07:53:36;;;;;;;4.65;1.88;;;;;;;8.82;58.36;96449.81;5024411;28;20058;-71
2022/04/20 07:56:20;;;;;;;3.30;1.85;;;;;;;8.87;53.12;96447.22;5022114;28;20045;-71
2022/04/20 07:58:53;;;;;;;3.97;1.85;;;;;;;8.93;54.26;96456.97;5022584;28;20048;-71
2022/04/20 08:01:27;;;;;;;5.78;2.00;;;;;;;8.89;56.10;96461.16;5053189;28;20088;-70
2022/04/20 08:03:52;;;;;;;7.28;2.00;;;;;;;9.03;56.93;96459.84;5022341;28;20141;-70
2022/04/20 08:06:21;;;;;;;5.40;2.15;;;;;;;9.12;57.71;96466.41;5054062;28;20083;-70
2022/04/20 08:08:47;;;;;;;4.97;1.60;;;;;;;8.96;51.98;96464.50;5026236;28;20526;-70
2022/04/20 08:11:14;;;;;;;3.55;1.80;;;;;;;9.11;56.35;96461.31;5024924;28;20048;-69
2022/04/20 08:16:47;;;;;;;4.68;1.55;;;;;;;9.76;100.00;96461.63;5026156;28;20103;-69
2022/04/20 08:19:33;;;;;;;5.32;1.80;;;;;;;9.71;100.00;96458.06;5002169;28;20049;-69
2022/04/20 08:22:22;;;;;;;3.17;1.60;;;;;;;10.03;100.00;96460.97;5026766;28;20618;-70
2022/04/20 08:24:47;;;;;;;3.95;1.75;;;;;;;10.39;98.36;96470.34;5025146;28;20041;-72
2022/04/20 08:27:14;;;;;;;6.68;1.70;;;;;;;10.00;71.38;96461.47;5023830;28;20218;-69
2022/04/20 08:29:40;;;;;;;8.02;1.80;;;;;;;10.16;98.30;96474.00;5029917;28;20480;-71
2022/04/20 08:32:06;;;;;;;9.65;1.92;;;;;;;9.86;77.51;96476.22;5022768;28;20049;-71
2022/04/20 08:34:31;;;;;;;5.03;2.42;;;;;;;9.80;64.14;96480.66;5024771;28;20076;-69
2022/04/20 08:36:57;;;;;;;6.38;2.05;;;;;;;9.82;73.30;96475.09;5022762;28;20080;-69
2022/04/20 08:39:22;;;;;;;5.25;1.63;;;;;;;10.01;63.14;96479.13;5023558;28;20037;-69
2022/04/20 08:41:49;;;;;;;3.42;1.83;;;;;;;9.77;90.96;96479.28;5022004;28;20112;-69
2022/04/20 08:44:24;;;;;;;5.35;2.33;;;;;;;10.10;87.79;96471.50;5022488;28;20434;-69
2022/04/20 08:46:50;;;;;;;5.03;1.95;;;;;;;10.23;78.82;96472.00;5024786;28;20040;-69
2022/04/20 08:49:16;;;;;;;6.05;2.40;;;;;;;10.52;72.07;96483.38;5022805;28;20060;-71
2022/04/20 08:54:27;;;;;;;5.15;2.00;;;;;;;10.71;86.43;96483.06;5023386;28;20443;-69
2022/04/20 08:59:39;;;;;;;3.53;2.15;;;;;;;10.95;67.11;96479.09;5021339;28;20037;-69
2022/04/20 09:02:04;;;;;;;8.98;2.20;;;;;;;11.00;70.39;96467.66;5042304;28;20061;-71
2022/04/20 09:04:30;;;;;;;5.30;2.00;;;;;;;10.72;59.60;96472.13;5029377;28;20464;-69
2022/04/20 09:06:56;;;;;;;5.75;1.90;;;;;;;10.68;65.16;96475.56;5020577;28;20138;-69
2022/04/20 09:09:28;;;;;;;6.22;1.90;;;;;;;11.06;83.46;96469.31;5020755;28;20132;-72
2022/04/20 09:11:57;;;;;;;3.58;2.00;;;;;;;11.16;60.90;96472.09;5023058;28;20068;-70
2022/04/20 09:14:22;;;;;;;4.03;2.20;;;;;;;11.37;66.42;96459.75;5025233;28;20346;-71
2022/04/20 09:16:53;;;;;;;3.90;2.00;;;;;;;11.47;70.85;96454.47;5025029;28;20049;-69
2022/04/20 09:19:24;;;;;;;3.63;2.00;;;;;;;11.50;64.22;96450.47;5019663;28;20039;-69
2022/04/20 09:21:49;;;;;;;3.38;1.60;;;;;;;11.62;76.40;96461.84;5022189;28;20055;-69
2022/04/20 09:24:15;;;;;;;3.70;1.88;;;;;;;11.77;66.50;96464.66;5023314;28;20388;-69
2022/04/20 09:26:54;;;;;;;4.15;1.80;;;;;;;11.88;85.51;96465.56;5024337;28;20033;-70
2022/04/20 09:29:20;;;;;;;4.43;2.00;;;;;;;11.96;79.36;96457.84;5020509;28;20056;-69
2022/04/20 09:31:47;;;;;;;7.18;2.88;;;;;;;11.83;58.08;96457.47;5022045;28;20033;-70
2022/04/20 09:34:24;;;;;;;5.15;2.10;;;;;;;11.96;87.98;96457.84;5025543;28;20032;-69
2022/04/20 09:36:51;;;;;;;3.80;2.10;;;;;;;12.15;97.35;96449.41;5025395;28;20111;-71
2022/04/20 09:39:18;;;;;;;5.47;2.10;;;;;;;12.17;89.62;96452.66;5026462;28;20048;-69
2022/04/20 09:42:05;;;;;;;4.28;2.00;;;;;;;12.18;53.80;96448.88;5026519;28;20122;-71
2022/04/20 09:44:31;;;;;;;4.25;1.92;;;;;;;12.36;72.56;96445.78;5023756;28;20539;-69
2022/04/20 09:50:00;;;;;;;5.97;1.77;;;;;;;12.45;56.51;96435.34;5024587;28;20036;-69
2022/04/20 09:52:39;;;;;;;5.47;1.90;;;;;;;12.54;69.86;96441.88;5025750;28;20044;-72
2022/04/20 09:55:06;;;;;;;3.55;1.80;;;;;;;12.62;64.96;96429.81;5024328;28;20029;-69
2022/04/20 09:57:33;;;;;;;3.95;1.85;;;;;;;12.50;51.15;96430.81;5041083;28;20461;-72
2022/04/20 10:00:11;;;;;;;5.22;1.95;;;;;;;12.68;50.05;96426.06;5025436;28;20037;-70
2022/04/20 10:02:47;;;;;;;4.57;2.00;;;;;;;12.69;53.24;96419.66;5023639;28;20049;-71
2022/04/20 10:05:14;;;;;;;4.07;2.10;;;;;;;12.80;61.61;96423.97;5022131;28;20361;-71
2022/04/20 10:07:40;;;;;;;4.00;2.00;;;;;;;12.93;55.09;96423.50;5027610;28;20453;-71
2022/04/20 10:10:07;;;;;;;4.63;2.15;;;;;;;12.96;48.90;96411.41;5023309;28;20148;-70
2022/04/20 10:12:38;;;;;;;5.10;2.08;;;;;;;12.89;58.74;96414.34;5026105;28;20531;-69
2022/04/20 10:17:56;;;;;;;5.18;2.00;;;;;;;13.18;74.65;96411.19;5024647;28;20045;-70
2022/04/20 10:20:25;;;;;;;3.97;2.00;;;;;;;13.35;55.50;96417.97;5024215;28;20117;-72
2022/04/20 10:22:51;;;;;;;4.22;1.67;;;;;;;13.25;61.67;96414.47;5027626;28;20038;-69
2022/04/20 10:25:17;;;;;;;5.50;2.00;;;;;;;13.43;55.24;96405.88;5027626;28;20112;-69
2022/04/20 10:27:57;;;;;;;7.50;2.10;;;;;;;13.66;50.47;96405.34;5024743;28;20037;-70
2022/04/20 10:30:59;;;;;;;5.00;1.97;;;;;;;13.69;67.87;96403.19;5023929;28;20260;-70
2022/04/20 10:33:25;;;;;;;7.40;2.07;;;;;;;13.89;72.63;96404.00;4329348;28;10000473;-69
2022/04/20 10:36:05;;;;;;;3.92;1.90;;;;;;;14.36;49.96;96397.47;5017872;28;20296;-69
2022/04/20 10:38:35;;;;;;;5.50;2.30;;;;;;;14.52;44.30;96397.44;5025091;28;20029;-69
2022/04/20 10:41:20;;;;;;;3.70;2.05;;;;;;;14.85;43.55;96398.66;5023625;28;20052;-70
2022/04/20 10:44:04;;;;;;;4.20;1.70;;;;;;;14.95;47.70;96395.91;5038197;28;20361;-71
2022/04/20 10:46:30;;;;;;;5.85;1.73;;;;;;;15.22;45.09;96382.00;5022196;28;20357;-69
2022/04/20 10:49:16;;;;;;;3.95;2.20;;;;;;;15.86;39.64;96387.19;5023316;28;20477;-70
2022/04/20 10:51:42;;;;;;;3.97;1.95;;;;;;;16.71;40.29;96385.78;5019879;28;20044;-70
2022/04/20 10:54:17;;;;;;;6.55;2.00;;;;;;;18.01;34.23;96386.06;5021994;28;20045;-71
2022/04/20 10:57:09;;;;;;;6.20;2.08;;;;;;;19.42;32.59;96374.56;5020811;28;20128;-72
2022/04/20 10:59:35;;;;;;;3.75;1.90;;;;;;;20.77;32.24;96370.56;5020901;28;20036;-69
2022/04/20 11:02:03;;;;;;;5.32;1.90;;;;;;;22.13;28.61;96365.88;5019274;28;20046;-69
2022/04/20 11:04:39;;;;;;;6.22;2.03;;;;;;;23.15;25.27;96364.94;5022628;28;20056;-70
2022/04/20 11:07:07;;;;;;;3.13;1.70;;;;;;;22.95;30.68;96353.66;5019221;28;20037;-71
2022/04/20 11:09:42;;;;;;;5.15;1.98;;;;;;;24.22;26.29;96339.59;5020901;28;20031;-70
2022/04/20 11:21:03;;;;;;;4.10;1.77;;;;;;;22.91;25.95;96328.19;5020198;28;20511;-72
2022/04/20 11:23:54;;;;;;;3.60;1.73;;;;;;;23.46;23.89;96346.25;5021647;28;20044;-69
2022/04/20 11:26:26;;;;;;;4.90;1.95;;;;;;;24.50;28.60;96328.81;5021411;28;20037;-70
2022/04/20 11:28:52;;;;;;;3.67;1.80;;;;;;;25.00;26.25;96333.16;5019210;28;20056;-72
2022/04/20 11:31:18;;;;;;;6.53;2.17;;;;;;;25.45;23.07;96323.94;5020569;28;20037;-72
2022/04/20 11:33:44;;;;;;;5.95;1.80;;;;;;;27.51;20.90;96311.06;5025775;28;20396;-72
2022/04/20 11:36:15;;;;;;;5.32;3.17;;;;;;;25.13;20.76;96315.56;5035837;28;20033;-71
2022/04/20 11:38:42;;;;;;;5.65;2.13;;;;;;;25.82;22.63;96314.44;5021697;28;20033;-70
2022/04/20 11:41:12;;;;;;;5.32;2.10;;;;;;;27.28;20.39;96313.72;5020746;28;20128;-71
2022/04/20 11:43:39;;;;;;;3.92;2.10;;;;;;;28.42;20.36;96303.00;5021488;28;20450;-70
2022/04/20 11:46:09;;;;;;;8.27;2.30;;;;;;;28.31;20.08;96294.56;4986794;28;20493;-72
2022/04/20 11:48:36;;;;;;;5.30;2.13;;;;;;;29.69;20.67;96291.47;5020527;28;20479;-69
2022/04/20 11:51:07;;;;;;;5.35;2.15;;;;;;;28.76;22.96;96305.91;5019992;28;20057;-72
2022/04/20 11:53:41;;;;;;;5.32;1.92;;;;;;;28.62;21.41;96302.91;5020031;28;20036;-70
2022/04/20 11:56:39;;;;;;;4.13;2.00;;;;;;;28.42;21.13;96305.75;5022074;28;20052;-69
2022/04/20 11:59:07;;;;;;;7.30;2.10;;;;;;;27.14;19.82;96298.53;5021430;28;20116;-69
2022/04/20 12:01:35;;;;;;;7.10;1.80;;;;;;;27.10;22.49;96291.38;5021435;28;20037;-72
2022/04/20 12:04:16;;;;;;;5.53;1.83;;;;;;;28.96;21.23;96296.41;5023187;28;20148;-69
2022/04/20 12:06:52;;;;;;;4.35;1.80;;;;;;;29.76;17.64;96290.75;5020616;28;20337;-72
2022/04/20 12:09:28;;;;;;;3.92;2.00;;;;;;;29.90;20.19;96296.44;5023572;28;20099;-69
2022/04/20 12:12:00;;;;;;;3.97;2.10;;;;;;;31.01;20.28;96284.41;5036397;28;20559;-70
2022/04/20 12:14:49;;;;;;;3.83;1.90;;;;;;;32.90;16.27;96280.19;5023953;28;20372;-69
2022/04/20 12:17:20;;;;;;;4.65;1.80;;;;;;;33.75;16.15;96275.59;5013879;28;20098;-71
2022/04/20 12:19:47;;;;;;;5.75;2.08;;;;;;;30.47;16.71;96269.41;5025859;28;20037;-72
2022/04/20 12:22:15;;;;;;;3.65;2.05;;;;;;;29.63;20.24;96279.19;5022702;28;20322;-70
2022/04/20 12:24:42;;;;;;;7.55;1.90;;;;;;;29.63;21.16;96277.22;5026576;28;20537;-69
2022/04/20 12:27:22;;;;;;;11.85;1.90;;;;;;;31.65;17.02;96272.88;5023234;28;20514;-69
2022/04/20 12:29:55;;;;;;;8.43;1.63;;;;;;;31.85;19.53;96269.44;5019453;28;20037;-72
2022/04/20 12:32:26;;;;;;;3.67;2.05;;;;;;;30.91;16.84;96263.03;5022932;28;20400;-72
2022/04/20 12:34:54;;;;;;;3.83;1.83;;;;;;;31.40;17.60;96261.75;5020309;28;20040;-70
2022/04/20 12:37:28;;;;;;;4.45;1.65;;;;;;;31.79;17.73;96257.16;5053953;28;20029;-71